createdAt,value
2023-03-26T00:04:06.977Z,98656.29
2023-03-26T00:09:13.693Z,98647.37
2023-03-26T00:14:17.952Z,98649.08
2023-03-26T00:19:21.625Z,98650.46
2023-03-26T00:24:29.669Z,98642.50
2023-03-26T00:29:33.484Z,98639.04
2023-03-26T00:34:36.490Z,98633.88
2023-03-26T00:39:39.610Z,98629.08
2023-03-26T00:44:42.707Z,98627.76
2023-03-26T00:49:46.972Z,98624.59
2023-03-26T00:54:52.831Z,98619.20
2023-03-26T00:59:56.861Z,98613.14
2023-03-26T01:05:04.377Z,98612.94
2023-03-26T01:10:07.775Z,98611.34
2023-03-26T01:15:11.283Z,98613.08
2023-03-26T01:20:26.903Z,98614.85
2023-03-26T01:25:38.383Z,98613.30
2023-03-26T01:31:01.518Z,98610.39
2023-03-26T01:36:19.638Z,98608.48
2023-03-26T01:42:00.327Z,98599.45
2023-03-26T01:47:04.209Z,98593.02
2023-03-26T01:52:15.044Z,98586.43
2023-03-26T01:57:34.332Z,98582.31
2023-03-26T02:02:44.591Z,98576.04
2023-03-26T02:07:58.649Z,98576.04
2023-03-26T02:13:02.064Z,98573.02
2023-03-26T02:18:05.137Z,98568.48
2023-03-26T02:23:09.020Z,98562.70
2023-03-26T02:28:12.136Z,98558.67
2023-03-26T02:33:15.543Z,98557.44
2023-03-26T02:38:19.790Z,98557.59
2023-03-26T02:43:22.794Z,98554.40
2023-03-26T02:48:26.426Z,98554.17
2023-03-26T02:53:32.598Z,98552.52
2023-03-26T02:58:35.599Z,98552.98
2023-03-26T03:03:38.977Z,98551.16
2023-03-26T03:08:41.935Z,98542.65
2023-03-26T03:13:46.386Z,98537.55
2023-03-26T03:18:54.814Z,98538.05
2023-03-26T03:24:00.295Z,98537.98
2023-03-26T03:29:04.030Z,98537.41
2023-03-26T03:34:07.092Z,98536.21
2023-03-26T03:39:10.201Z,98536.40
2023-03-26T03:44:13.209Z,98539.66
2023-03-26T03:49:16.533Z,98532.48
2023-03-26T03:54:19.440Z,98530.63
2023-03-26T03:59:22.442Z,98528.14
2023-03-26T04:04:25.670Z,98528.27
2023-03-26T04:09:28.651Z,98530.52
2023-03-26T04:14:31.658Z,98531.62
2023-03-26T04:19:34.678Z,98526.98
2023-03-26T04:24:42.453Z,98524.96
2023-03-26T04:29:49.819Z,98521.55
2023-03-26T04:34:53.887Z,98517.73
2023-03-26T04:39:56.774Z,98512.02
2023-03-26T04:45:00.143Z,98502.64
2023-03-26T04:50:08.238Z,98504.30
2023-03-26T04:55:24.538Z,98501.48
2023-03-26T05:00:27.902Z,98498.53
2023-03-26T05:05:31.011Z,98495.61
2023-03-26T05:10:34.333Z,98496.09
2023-03-26T05:15:37.430Z,98499.15
2023-03-26T05:20:41.633Z,98499.88
2023-03-26T05:25:44.675Z,98499.48
2023-03-26T05:30:47.792Z,98495.35
2023-03-26T05:36:09.522Z,98493.52
2023-03-26T05:41:12.430Z,98491.99
2023-03-26T05:46:16.944Z,98490.14
2023-03-26T05:51:20.824Z,98488.14
2023-03-26T05:56:23.808Z,98483.38
2023-03-26T06:01:26.909Z,98486.27
2023-03-26T06:06:32.247Z,98487.77
2023-03-26T06:11:36.502Z,98490.48
2023-03-26T06:16:39.716Z,98489.71
2023-03-26T06:21:42.824Z,98490.30
2023-03-26T06:26:47.217Z,98483.52
2023-03-26T06:31:50.175Z,98487.80
2023-03-26T06:36:53.300Z,98482.66
2023-03-26T06:41:56.699Z,98488.64
2023-03-26T06:47:00.198Z,98484.72
2023-03-26T06:52:03.856Z,98481.92
2023-03-26T06:57:06.879Z,98484.42
2023-03-26T07:02:11.579Z,98484.14
2023-03-26T07:07:14.709Z,98484.52
2023-03-26T07:12:18.121Z,98484.05
2023-03-26T07:17:21.233Z,98483.15
2023-03-26T07:22:25.000Z,98481.21
2023-03-26T07:27:46.905Z,98483.55
2023-03-26T07:32:59.464Z,98482.80
2023-03-26T07:38:33.280Z,98483.44
2023-03-26T07:44:04.531Z,98484.02
2023-03-26T07:49:12.966Z,98476.21
2023-03-26T07:54:16.434Z,98474.34
2023-03-26T07:59:28.296Z,98472.61
2023-03-26T08:05:10.627Z,98472.70
2023-03-26T08:10:22.176Z,98470.38
2023-03-26T08:15:25.945Z,98467.78
2023-03-26T08:21:06.541Z,98469.15
2023-03-26T08:26:15.028Z,98465.21
2023-03-26T08:31:21.673Z,98468.92
2023-03-26T08:36:24.671Z,98463.46
2023-03-26T08:41:46.525Z,98463.94
2023-03-26T08:47:27.564Z,98473.36
2023-03-26T08:53:08.025Z,98467.48
2023-03-26T08:58:23.303Z,98468.05
2023-03-26T09:03:58.906Z,98461.80
2023-03-26T09:09:33.315Z,98460.90
2023-03-26T09:14:51.687Z,98459.23
2023-03-26T09:20:33.091Z,98454.19
2023-03-26T09:26:01.695Z,98463.34
2023-03-26T09:31:29.096Z,98474.48
2023-03-26T09:36:50.720Z,98475.89
2023-03-26T09:42:28.853Z,98476.29
2023-03-26T09:47:47.751Z,98481.54
2023-03-26T09:53:24.835Z,98482.13
2023-03-26T09:58:37.285Z,98482.09
2023-03-26T10:04:12.117Z,98470.05
2023-03-26T10:09:46.661Z,98471.72
2023-03-26T10:15:18.037Z,98475.50
2023-03-26T10:20:54.781Z,98481.99
2023-03-26T10:26:24.767Z,98480.52
2023-03-26T10:31:42.899Z,98476.06
2023-03-26T10:37:09.187Z,98469.59
2023-03-26T10:43:07.388Z,98471.02
2023-03-26T10:49:01.168Z,98468.42
2023-03-26T10:54:11.371Z,98467.15
2023-03-26T10:59:16.306Z,98466.92
2023-03-26T11:04:32.891Z,98469.05
2023-03-26T11:09:48.270Z,98473.36
2023-03-26T11:15:13.045Z,98476.70
2023-03-26T11:20:27.622Z,98479.05
2023-03-26T11:25:59.822Z,98476.32
2023-03-26T11:31:12.070Z,98476.41
2023-03-26T11:36:24.692Z,98481.71
2023-03-26T11:41:32.682Z,98481.83
2023-03-26T11:46:42.724Z,98481.13
2023-03-26T11:51:48.952Z,98473.02
2023-03-26T11:57:07.266Z,98471.55
2023-03-26T12:02:13.423Z,98464.95
2023-03-26T12:07:23.464Z,98462.45
2023-03-26T12:12:31.473Z,98469.30
2023-03-26T12:17:39.802Z,98493.99
2023-03-26T12:22:44.965Z,98508.27
2023-03-26T12:27:52.985Z,98524.94
2023-03-26T12:33:03.809Z,98539.80
2023-03-26T12:38:22.461Z,98539.07
2023-03-26T12:44:53.414Z,98538.81
2023-03-26T12:49:12.091Z,98531.27
2023-03-26T12:54:28.927Z,98526.89
2023-03-26T13:00:11.152Z,98518.35
2023-03-26T13:05:36.893Z,98513.20
2023-03-26T13:11:01.582Z,98512.39
2023-03-26T13:16:15.068Z,98511.23
2023-03-26T13:21:24.008Z,98506.54
2023-03-26T13:26:50.675Z,98503.16
2023-03-26T13:32:18.977Z,98504.33
2023-03-26T13:37:40.520Z,98493.59
2023-03-26T13:43:05.030Z,98499.33
2023-03-26T13:48:16.678Z,98499.66
2023-03-26T13:53:25.970Z,98502.95
2023-03-26T13:58:44.461Z,98507.41
2023-03-26T14:03:56.446Z,98509.83
2023-03-26T14:09:07.573Z,98514.95
2023-03-26T14:14:17.953Z,98510.90
2023-03-26T14:19:26.806Z,98509.95
2023-03-26T14:25:01.949Z,98515.69
2023-03-26T14:30:56.655Z,98514.66
2023-03-26T14:36:15.344Z,98521.87
2023-03-26T14:41:59.316Z,98530.61
2023-03-26T14:47:17.866Z,98540.73
2023-03-26T14:52:30.104Z,98546.50
2023-03-26T14:57:52.574Z,98548.88
2023-03-26T15:03:11.179Z,98549.64
2023-03-26T15:08:34.174Z,98556.52
2023-03-26T15:14:18.401Z,98558.39
2023-03-26T15:19:33.690Z,98562.88
2023-03-26T15:25:17.145Z,98562.35
2023-03-26T15:30:39.619Z,98566.98
2023-03-26T15:36:26.566Z,98563.02
2023-03-26T15:41:58.830Z,98562.35
2023-03-26T15:47:23.447Z,98563.11
2023-03-26T15:53:10.306Z,98574.34
2023-03-26T15:58:30.969Z,98576.27
2023-03-26T16:03:50.083Z,98576.12
2023-03-26T16:08:56.272Z,98574.42
2023-03-26T16:14:23.899Z,98569.92
2023-03-26T16:19:36.422Z,98581.54
2023-03-26T16:24:47.787Z,98592.17
2023-03-26T16:30:00.154Z,98602.32
2023-03-26T16:35:16.742Z,98606.27
2023-03-26T16:40:20.991Z,98614.94
2023-03-26T16:45:50.607Z,98609.91
2023-03-26T16:51:05.176Z,98609.70
2023-03-26T16:56:22.527Z,98602.21
2023-03-26T17:01:52.387Z,98598.95
2023-03-26T17:07:17.588Z,98604.58
2023-03-26T17:12:48.659Z,98607.36
2023-03-26T17:18:03.821Z,98619.89
2023-03-26T17:23:25.690Z,98627.29
2023-03-26T17:28:45.489Z,98631.84
2023-03-26T17:33:48.759Z,98638.25
2023-03-26T17:39:00.984Z,98649.05
2023-03-26T17:44:47.354Z,98656.83
2023-03-26T17:49:58.549Z,98661.52
2023-03-26T17:55:03.059Z,98661.10
2023-03-26T18:00:11.113Z,98656.31
2023-03-26T18:05:16.890Z,98658.38
2023-03-26T18:10:41.606Z,98660.04
2023-03-26T18:16:00.218Z,98666.33
2023-03-26T18:21:07.404Z,98678.27
2023-03-26T18:26:21.656Z,98677.70
2023-03-26T18:31:27.049Z,98675.87
2023-03-26T18:36:31.243Z,98671.00
2023-03-26T18:41:42.846Z,98669.71
2023-03-26T18:46:46.682Z,98671.21
2023-03-26T18:51:56.677Z,98667.11
2023-03-26T18:57:15.026Z,98663.20
2023-03-26T19:02:21.117Z,98662.77
2023-03-26T19:07:26.657Z,98659.75
2023-03-26T19:12:36.744Z,98659.02
2023-03-26T19:17:44.717Z,98666.17
2023-03-26T19:22:48.719Z,98679.48
2023-03-26T19:27:52.745Z,98681.50
2023-03-26T19:33:11.881Z,98678.64
2023-03-26T19:38:19.224Z,98682.74
2023-03-26T19:43:24.120Z,98683.94
2023-03-26T19:48:45.437Z,98681.73
2023-03-26T19:53:58.494Z,98678.56
2023-03-26T19:59:02.485Z,98681.16
2023-03-26T20:04:07.475Z,98683.45
2023-03-26T20:09:11.938Z,98683.72
2023-03-26T20:14:17.402Z,98683.34
2023-03-26T20:19:20.966Z,98680.64
2023-03-26T20:24:26.202Z,98675.66
2023-03-26T20:29:29.651Z,98673.80
2023-03-26T20:34:32.835Z,98673.96
2023-03-26T20:39:36.043Z,98674.65
2023-03-26T20:44:39.151Z,98668.15
2023-03-26T20:49:43.377Z,98667.45
2023-03-26T20:54:46.394Z,98675.35
2023-03-26T20:59:49.529Z,98670.48
2023-03-26T21:04:54.043Z,98672.28
2023-03-26T21:09:58.217Z,98674.47
2023-03-26T21:15:07.194Z,98673.27
2023-03-26T21:20:15.180Z,98677.40
2023-03-26T21:25:32.297Z,98685.55
2023-03-26T21:30:36.122Z,98686.27
2023-03-26T21:35:40.531Z,98679.63
2023-03-26T21:40:52.915Z,98684.02
2023-03-26T21:46:01.835Z,98685.16
2023-03-26T21:51:05.765Z,98683.89
2023-03-26T21:56:41.662Z,98683.19
2023-03-26T22:01:58.623Z,98687.73
2023-03-26T22:07:10.370Z,98689.98
2023-03-26T22:12:13.485Z,98685.98
2023-03-26T22:17:16.473Z,98687.64
2023-03-26T22:22:19.499Z,98684.95
2023-03-26T22:27:22.501Z,98680.08
2023-03-26T22:32:25.531Z,98682.23
2023-03-26T22:37:37.370Z,98685.41
2023-03-26T22:42:41.055Z,98685.66
2023-03-26T22:47:45.180Z,98695.52
2023-03-26T22:52:48.285Z,98701.42
2023-03-26T22:57:52.632Z,98707.48
2023-03-26T23:03:00.786Z,98705.11
2023-03-26T23:08:04.300Z,98710.29
2023-03-26T23:13:07.684Z,98715.98
2023-03-26T23:18:12.030Z,98714.65
2023-03-26T23:23:15.027Z,98707.09
2023-03-26T23:28:18.436Z,98708.66
2023-03-26T23:33:23.474Z,98706.98
2023-03-26T23:38:44.301Z,98701.70
2023-03-26T23:43:55.486Z,98690.73
2023-03-26T23:49:02.431Z,98695.21
2023-03-26T23:54:05.632Z,98691.92
2023-03-26T23:59:08.564Z,98692.45
